sensor_id;sensor_type;location;lat;lon;timestamp;P1;durP1;ratioP1;P2;durP2;ratioP2
74551;SDS011;63025;55.472;38.432;2023-03-01T00:01:33;3.00;;;1.20;;
74551;SDS011;63025;55.472;38.432;2023-03-01T00:03:59;4.95;;;1.27;;
74551;SDS011;63025;55.472;38.432;2023-03-01T00:06:26;6.18;;;1.40;;
74551;SDS011;63025;55.472;38.432;2023-03-01T00:08:52;5.25;;;1.05;;
74551;SDS011;63025;55.472;38.432;2023-03-01T00:13:49;4.72;;;1.45;;
74551;SDS011;63025;55.472;38.432;2023-03-01T00:16:18;6.57;;;1.30;;
74551;SDS011;63025;55.472;38.432;2023-03-01T00:18:46;4.68;;;1.45;;
74551;SDS011;63025;55.472;38.432;2023-03-01T00:21:12;2.05;;;1.00;;
74551;SDS011;63025;55.472;38.432;2023-03-01T00:23:38;2.63;;;1.10;;
74551;SDS011;63025;55.472;38.432;2023-03-01T00:26:09;3.13;;;1.27;;
74551;SDS011;63025;55.472;38.432;2023-03-01T00:28:38;6.70;;;1.50;;
74551;SDS011;63025;55.472;38.432;2023-03-01T00:31:09;4.45;;;1.23;;
74551;SDS011;63025;55.472;38.432;2023-03-01T00:33:38;6.75;;;1.58;;
74551;SDS011;63025;55.472;38.432;2023-03-01T00:36:04;3.15;;;1.30;;
74551;SDS011;63025;55.472;38.432;2023-03-01T00:38:34;4.60;;;1.50;;
74551;SDS011;63025;55.472;38.432;2023-03-01T00:41:05;4.50;;;1.63;;
74551;SDS011;63025;55.472;38.432;2023-03-01T00:43:31;6.93;;;2.20;;
74551;SDS011;63025;55.472;38.432;2023-03-01T00:46:06;5.03;;;1.88;;
74551;SDS011;63025;55.472;38.432;2023-03-01T00:48:34;5.32;;;2.08;;
74551;SDS011;63025;55.472;38.432;2023-03-01T00:51:07;7.75;;;2.33;;
74551;SDS011;63025;55.472;38.432;2023-03-01T00:53:36;8.32;;;2.40;;
74551;SDS011;63025;55.472;38.432;2023-03-01T00:56:02;8.30;;;2.60;;
74551;SDS011;63025;55.472;38.432;2023-03-01T00:58:29;7.45;;;3.35;;
74551;SDS011;63025;55.472;38.432;2023-03-01T01:00:55;11.45;;;3.30;;
74551;SDS011;63025;55.472;38.432;2023-03-01T01:03:21;10.32;;;3.15;;
74551;SDS011;63025;55.472;38.432;2023-03-01T01:05:47;9.05;;;2.72;;
74551;SDS011;63025;55.472;38.432;2023-03-01T01:08:13;5.22;;;2.22;;
74551;SDS011;63025;55.472;38.432;2023-03-01T01:10:38;6.45;;;2.58;;
74551;SDS011;63025;55.472;38.432;2023-03-01T01:13:04;6.22;;;2.35;;
74551;SDS011;63025;55.472;38.432;2023-03-01T01:15:33;6.93;;;2.20;;
74551;SDS011;63025;55.472;38.432;2023-03-01T01:18:00;5.90;;;2.58;;
74551;SDS011;63025;55.472;38.432;2023-03-01T01:20:26;5.88;;;2.22;;
74551;SDS011;63025;55.472;38.432;2023-03-01T01:22:52;7.07;;;2.47;;
74551;SDS011;63025;55.472;38.432;2023-03-01T01:25:18;7.38;;;2.80;;
74551;SDS011;63025;55.472;38.432;2023-03-01T01:27:45;8.93;;;2.22;;
74551;SDS011;63025;55.472;38.432;2023-03-01T01:30:10;8.07;;;2.65;;
74551;SDS011;63025;55.472;38.432;2023-03-01T01:32:37;13.05;;;3.75;;
74551;SDS011;63025;55.472;38.432;2023-03-01T01:35:02;8.88;;;2.83;;
74551;SDS011;63025;55.472;38.432;2023-03-01T01:37:29;11.90;;;3.85;;
74551;SDS011;63025;55.472;38.432;2023-03-01T01:39:59;11.65;;;4.65;;
74551;SDS011;63025;55.472;38.432;2023-03-01T01:42:25;12.50;;;4.18;;
74551;SDS011;63025;55.472;38.432;2023-03-01T01:47:57;12.90;;;4.32;;
74551;SDS011;63025;55.472;38.432;2023-03-01T01:50:28;17.13;;;4.75;;
74551;SDS011;63025;55.472;38.432;2023-03-01T01:53:04;18.58;;;3.50;;
74551;SDS011;63025;55.472;38.432;2023-03-01T01:55:45;19.83;;;5.55;;
74551;SDS011;63025;55.472;38.432;2023-03-01T01:58:17;28.58;;;7.55;;
74551;SDS011;63025;55.472;38.432;2023-03-01T02:00:46;27.95;;;7.55;;
74551;SDS011;63025;55.472;38.432;2023-03-01T02:03:14;31.10;;;7.72;;
74551;SDS011;63025;55.472;38.432;2023-03-01T02:08:31;25.75;;;7.30;;
74551;SDS011;63025;55.472;38.432;2023-03-01T02:11:00;29.98;;;7.97;;
74551;SDS011;63025;55.472;38.432;2023-03-01T02:13:30;39.10;;;8.52;;
74551;SDS011;63025;55.472;38.432;2023-03-01T02:15:56;17.50;;;5.28;;
74551;SDS011;63025;55.472;38.432;2023-03-01T02:18:22;14.05;;;4.78;;
74551;SDS011;63025;55.472;38.432;2023-03-01T02:23:18;10.43;;;3.00;;
74551;SDS011;63025;55.472;38.432;2023-03-01T02:30:43;7.38;;;2.30;;
74551;SDS011;63025;55.472;38.432;2023-03-01T02:33:30;5.57;;;1.58;;
74551;SDS011;63025;55.472;38.432;2023-03-01T02:35:58;3.72;;;1.83;;
74551;SDS011;63025;55.472;38.432;2023-03-01T02:38:27;4.28;;;1.58;;
74551;SDS011;63025;55.472;38.432;2023-03-01T02:40:53;5.95;;;1.92;;
74551;SDS011;63025;55.472;38.432;2023-03-01T02:43:21;5.13;;;1.50;;
74551;SDS011;63025;55.472;38.432;2023-03-01T02:45:51;6.13;;;2.25;;
74551;SDS011;63025;55.472;38.432;2023-03-01T02:48:19;7.55;;;2.30;;
74551;SDS011;63025;55.472;38.432;2023-03-01T02:56:20;5.95;;;2.72;;
74551;SDS011;63025;55.472;38.432;2023-03-01T02:58:46;4.90;;;2.20;;
74551;SDS011;63025;55.472;38.432;2023-03-01T03:01:20;7.03;;;2.15;;
74551;SDS011;63025;55.472;38.432;2023-03-01T03:03:46;10.73;;;2.67;;
74551;SDS011;63025;55.472;38.432;2023-03-01T03:06:13;9.13;;;2.88;;
74551;SDS011;63025;55.472;38.432;2023-03-01T03:08:39;9.35;;;2.80;;
74551;SDS011;63025;55.472;38.432;2023-03-01T03:11:05;7.88;;;2.28;;
74551;SDS011;63025;55.472;38.432;2023-03-01T03:13:31;7.18;;;2.50;;
74551;SDS011;63025;55.472;38.432;2023-03-01T03:15:57;6.55;;;2.47;;
74551;SDS011;63025;55.472;38.432;2023-03-01T03:18:23;8.57;;;2.45;;
74551;SDS011;63025;55.472;38.432;2023-03-01T03:20:52;5.80;;;2.40;;
74551;SDS011;63025;55.472;38.432;2023-03-01T03:23:19;6.70;;;2.60;;
74551;SDS011;63025;55.472;38.432;2023-03-01T03:25:47;6.20;;;2.72;;
74551;SDS011;63025;55.472;38.432;2023-03-01T03:28:14;6.25;;;2.33;;
74551;SDS011;63025;55.472;38.432;2023-03-01T03:30:41;8.63;;;2.60;;
74551;SDS011;63025;55.472;38.432;2023-03-01T03:33:07;5.72;;;1.98;;
74551;SDS011;63025;55.472;38.432;2023-03-01T03:35:39;4.35;;;1.50;;
74551;SDS011;63025;55.472;38.432;2023-03-01T03:38:10;5.60;;;1.80;;
74551;SDS011;63025;55.472;38.432;2023-03-01T03:40:51;5.28;;;1.58;;
74551;SDS011;63025;55.472;38.432;2023-03-01T03:43:27;4.18;;;1.40;;
74551;SDS011;63025;55.472;38.432;2023-03-01T03:45:54;4.22;;;1.60;;
74551;SDS011;63025;55.472;38.432;2023-03-01T03:48:20;4.45;;;1.40;;
74551;SDS011;63025;55.472;38.432;2023-03-01T03:50:50;4.47;;;1.50;;
74551;SDS011;63025;55.472;38.432;2023-03-01T03:53:17;5.95;;;1.45;;
74551;SDS011;63025;55.472;38.432;2023-03-01T03:55:43;5.55;;;1.58;;
74551;SDS011;63025;55.472;38.432;2023-03-01T03:58:10;4.40;;;1.48;;
74551;SDS011;63025;55.472;38.432;2023-03-01T04:03:07;6.18;;;1.67;;
74551;SDS011;63025;55.472;38.432;2023-03-01T04:05:33;7.80;;;1.65;;
74551;SDS011;63025;55.472;38.432;2023-03-01T04:08:00;3.83;;;1.60;;
74551;SDS011;63025;55.472;38.432;2023-03-01T04:10:39;5.90;;;1.73;;
74551;SDS011;63025;55.472;38.432;2023-03-01T04:13:09;5.35;;;1.73;;
74551;SDS011;63025;55.472;38.432;2023-03-01T04:15:36;6.50;;;2.13;;
74551;SDS011;63025;55.472;38.432;2023-03-01T04:18:02;6.10;;;2.15;;
74551;SDS011;63025;55.472;38.432;2023-03-01T04:20:30;5.50;;;1.70;;
74551;SDS011;63025;55.472;38.432;2023-03-01T04:22:59;4.75;;;1.60;;
74551;SDS011;63025;55.472;38.432;2023-03-01T04:25:39;4.38;;;1.55;;
74551;SDS011;63025;55.472;38.432;2023-03-01T04:28:07;4.40;;;1.90;;
74551;SDS011;63025;55.472;38.432;2023-03-01T04:30:34;4.90;;;1.38;;
74551;SDS011;63025;55.472;38.432;2023-03-01T04:33:04;5.55;;;2.03;;
74551;SDS011;63025;55.472;38.432;2023-03-01T04:35:46;8.05;;;1.92;;
74551;SDS011;63025;55.472;38.432;2023-03-01T04:38:15;5.72;;;1.63;;
74551;SDS011;63025;55.472;38.432;2023-03-01T04:40:42;3.83;;;1.42;;
74551;SDS011;63025;55.472;38.432;2023-03-01T04:43:08;8.00;;;1.70;;
74551;SDS011;63025;55.472;38.432;2023-03-01T04:45:35;5.15;;;1.77;;
74551;SDS011;63025;55.472;38.432;2023-03-01T04:48:02;4.43;;;1.50;;
74551;SDS011;63025;55.472;38.432;2023-03-01T04:50:28;4.00;;;1.50;;
74551;SDS011;63025;55.472;38.432;2023-03-01T04:52:54;4.22;;;1.40;;
74551;SDS011;63025;55.472;38.432;2023-03-01T04:55:24;5.43;;;1.70;;
74551;SDS011;63025;55.472;38.432;2023-03-01T04:57:51;4.57;;;1.58;;
74551;SDS011;63025;55.472;38.432;2023-03-01T05:00:18;4.97;;;1.60;;
74551;SDS011;63025;55.472;38.432;2023-03-01T05:02:47;6.40;;;1.60;;
74551;SDS011;63025;55.472;38.432;2023-03-01T05:05:28;4.05;;;1.60;;
74551;SDS011;63025;55.472;38.432;2023-03-01T05:07:59;3.90;;;1.33;;
74551;SDS011;63025;55.472;38.432;2023-03-01T05:10:28;4.13;;;1.20;;
74551;SDS011;63025;55.472;38.432;2023-03-01T05:12:55;5.88;;;1.73;;
74551;SDS011;63025;55.472;38.432;2023-03-01T05:15:23;5.60;;;1.80;;
74551;SDS011;63025;55.472;38.432;2023-03-01T05:17:53;3.60;;;1.33;;
74551;SDS011;63025;55.472;38.432;2023-03-01T05:20:20;6.65;;;1.75;;
74551;SDS011;63025;55.472;38.432;2023-03-01T05:22:51;4.85;;;1.38;;
74551;SDS011;63025;55.472;38.432;2023-03-01T05:25:17;5.43;;;1.50;;
74551;SDS011;63025;55.472;38.432;2023-03-01T05:27:43;3.03;;;1.38;;
74551;SDS011;63025;55.472;38.432;2023-03-01T05:30:09;3.92;;;1.30;;
74551;SDS011;63025;55.472;38.432;2023-03-01T05:32:39;3.25;;;1.40;;
74551;SDS011;63025;55.472;38.432;2023-03-01T05:35:11;8.52;;;1.70;;
74551;SDS011;63025;55.472;38.432;2023-03-01T05:37:41;3.95;;;1.20;;
74551;SDS011;63025;55.472;38.432;2023-03-01T05:40:09;3.58;;;1.17;;
74551;SDS011;63025;55.472;38.432;2023-03-01T05:42:41;3.72;;;1.45;;
74551;SDS011;63025;55.472;38.432;2023-03-01T05:45:09;6.32;;;1.88;;
74551;SDS011;63025;55.472;38.432;2023-03-01T05:47:35;6.35;;;1.60;;
74551;SDS011;63025;55.472;38.432;2023-03-01T05:50:01;6.32;;;1.50;;
74551;SDS011;63025;55.472;38.432;2023-03-01T05:52:28;4.60;;;1.63;;
74551;SDS011;63025;55.472;38.432;2023-03-01T05:54:54;7.70;;;1.83;;
74551;SDS011;63025;55.472;38.432;2023-03-01T05:57:20;7.38;;;1.63;;
74551;SDS011;63025;55.472;38.432;2023-03-01T05:59:46;4.45;;;1.50;;
74551;SDS011;63025;55.472;38.432;2023-03-01T06:02:12;6.20;;;1.67;;
74551;SDS011;63025;55.472;38.432;2023-03-01T06:04:37;3.20;;;1.50;;
74551;SDS011;63025;55.472;38.432;2023-03-01T06:07:03;3.42;;;1.20;;
74551;SDS011;63025;55.472;38.432;2023-03-01T06:09:29;4.50;;;1.52;;
74551;SDS011;63025;55.472;38.432;2023-03-01T06:11:55;5.25;;;1.65;;
74551;SDS011;63025;55.472;38.432;2023-03-01T06:14:20;5.57;;;1.63;;
74551;SDS011;63025;55.472;38.432;2023-03-01T06:16:46;3.33;;;1.58;;
74551;SDS011;63025;55.472;38.432;2023-03-01T06:19:12;4.82;;;1.40;;
74551;SDS011;63025;55.472;38.432;2023-03-01T06:21:37;4.60;;;1.48;;
74551;SDS011;63025;55.472;38.432;2023-03-01T06:24:03;4.70;;;1.40;;
74551;SDS011;63025;55.472;38.432;2023-03-01T06:26:31;3.42;;;1.30;;
74551;SDS011;63025;55.472;38.432;2023-03-01T06:28:56;3.75;;;1.30;;
74551;SDS011;63025;55.472;38.432;2023-03-01T06:31:22;5.25;;;1.60;;
74551;SDS011;63025;55.472;38.432;2023-03-01T06:33:48;4.18;;;1.40;;
74551;SDS011;63025;55.472;38.432;2023-03-01T06:36:13;3.45;;;1.48;;
74551;SDS011;63025;55.472;38.432;2023-03-01T06:38:39;4.75;;;1.60;;
74551;SDS011;63025;55.472;38.432;2023-03-01T06:41:05;5.80;;;1.42;;
74551;SDS011;63025;55.472;38.432;2023-03-01T06:43:32;4.13;;;1.58;;
74551;SDS011;63025;55.472;38.432;2023-03-01T06:45:57;7.13;;;1.40;;
74551;SDS011;63025;55.472;38.432;2023-03-01T06:48:23;3.13;;;1.20;;
74551;SDS011;63025;55.472;38.432;2023-03-01T06:50:49;4.63;;;1.10;;
74551;SDS011;63025;55.472;38.432;2023-03-01T06:53:14;2.95;;;1.30;;
74551;SDS011;63025;55.472;38.432;2023-03-01T06:55:40;5.60;;;1.75;;
74551;SDS011;63025;55.472;38.432;2023-03-01T06:58:06;3.50;;;1.38;;
74551;SDS011;63025;55.472;38.432;2023-03-01T07:00:32;5.32;;;1.60;;
74551;SDS011;63025;55.472;38.432;2023-03-01T07:02:58;6.50;;;1.60;;
74551;SDS011;63025;55.472;38.432;2023-03-01T07:05:25;9.65;;;1.60;;
74551;SDS011;63025;55.472;38.432;2023-03-01T07:07:51;5.03;;;2.00;;
74551;SDS011;63025;55.472;38.432;2023-03-01T07:10:18;4.97;;;1.80;;
74551;SDS011;63025;55.472;38.432;2023-03-01T07:12:44;5.25;;;1.52;;
74551;SDS011;63025;55.472;38.432;2023-03-01T07:15:11;4.68;;;1.80;;
74551;SDS011;63025;55.472;38.432;2023-03-01T07:17:37;5.28;;;1.88;;
74551;SDS011;63025;55.472;38.432;2023-03-01T07:20:03;5.05;;;1.70;;
74551;SDS011;63025;55.472;38.432;2023-03-01T07:22:29;5.55;;;1.60;;
74551;SDS011;63025;55.472;38.432;2023-03-01T07:24:55;4.80;;;2.15;;
74551;SDS011;63025;55.472;38.432;2023-03-01T07:27:20;5.22;;;1.40;;
74551;SDS011;63025;55.472;38.432;2023-03-01T07:29:46;5.32;;;2.00;;
74551;SDS011;63025;55.472;38.432;2023-03-01T07:32:12;6.53;;;2.00;;
74551;SDS011;63025;55.472;38.432;2023-03-01T07:34:37;3.50;;;1.58;;
74551;SDS011;63025;55.472;38.432;2023-03-01T07:37:03;4.80;;;1.50;;
74551;SDS011;63025;55.472;38.432;2023-03-01T07:39:29;6.13;;;1.65;;
74551;SDS011;63025;55.472;38.432;2023-03-01T07:41:55;3.65;;;1.45;;
74551;SDS011;63025;55.472;38.432;2023-03-01T07:44:21;4.90;;;1.40;;
74551;SDS011;63025;55.472;38.432;2023-03-01T07:46:47;4.90;;;1.58;;
74551;SDS011;63025;55.472;38.432;2023-03-01T07:49:13;3.92;;;1.48;;
74551;SDS011;63025;55.472;38.432;2023-03-01T07:51:38;4.55;;;1.40;;
74551;SDS011;63025;55.472;38.432;2023-03-01T07:54:04;3.25;;;1.48;;
74551;SDS011;63025;55.472;38.432;2023-03-01T07:56:30;3.95;;;1.50;;
74551;SDS011;63025;55.472;38.432;2023-03-01T07:58:56;4.55;;;1.70;;
74551;SDS011;63025;55.472;38.432;2023-03-01T08:01:24;6.90;;;1.70;;
74551;SDS011;63025;55.472;38.432;2023-03-01T08:03:50;2.60;;;1.20;;
74551;SDS011;63025;55.472;38.432;2023-03-01T08:06:16;6.32;;;1.52;;
74551;SDS011;63025;55.472;38.432;2023-03-01T08:08:42;3.90;;;1.30;;
74551;SDS011;63025;55.472;38.432;2023-03-01T08:11:10;3.97;;;1.50;;
74551;SDS011;63025;55.472;38.432;2023-03-01T08:13:37;5.35;;;1.80;;
74551;SDS011;63025;55.472;38.432;2023-03-01T08:16:04;5.07;;;1.60;;
74551;SDS011;63025;55.472;38.432;2023-03-01T08:18:32;5.53;;;1.90;;
74551;SDS011;63025;55.472;38.432;2023-03-01T08:21:16;4.88;;;1.80;;
74551;SDS011;63025;55.472;38.432;2023-03-01T08:23:43;5.68;;;2.10;;
74551;SDS011;63025;55.472;38.432;2023-03-01T08:28:39;7.60;;;2.13;;
74551;SDS011;63025;55.472;38.432;2023-03-01T08:33:47;4.70;;;1.90;;
74551;SDS011;63025;55.472;38.432;2023-03-01T08:36:20;3.25;;;1.65;;
74551;SDS011;63025;55.472;38.432;2023-03-01T08:38:47;7.40;;;2.25;;
74551;SDS011;63025;55.472;38.432;2023-03-01T08:41:13;10.27;;;2.30;;
74551;SDS011;63025;55.472;38.432;2023-03-01T08:43:39;4.63;;;1.95;;
74551;SDS011;63025;55.472;38.432;2023-03-01T08:46:06;4.80;;;2.58;;
74551;SDS011;63025;55.472;38.432;2023-03-01T08:48:31;5.63;;;2.88;;
74551;SDS011;63025;55.472;38.432;2023-03-01T08:51:06;7.72;;;3.03;;
74551;SDS011;63025;55.472;38.432;2023-03-01T08:53:42;6.53;;;3.10;;
74551;SDS011;63025;55.472;38.432;2023-03-01T08:56:08;5.15;;;2.85;;
74551;SDS011;63025;55.472;38.432;2023-03-01T08:58:34;6.05;;;2.60;;
74551;SDS011;63025;55.472;38.432;2023-03-01T09:01:04;5.72;;;2.53;;
74551;SDS011;63025;55.472;38.432;2023-03-01T09:03:33;8.77;;;2.90;;
74551;SDS011;63025;55.472;38.432;2023-03-01T09:06:02;10.15;;;3.15;;
74551;SDS011;63025;55.472;38.432;2023-03-01T09:08:29;6.38;;;2.72;;
74551;SDS011;63025;55.472;38.432;2023-03-01T09:10:55;5.75;;;2.22;;
74551;SDS011;63025;55.472;38.432;2023-03-01T09:13:21;8.05;;;2.50;;
74551;SDS011;63025;55.472;38.432;2023-03-01T09:15:50;6.05;;;2.40;;
74551;SDS011;63025;55.472;38.432;2023-03-01T09:18:16;4.68;;;2.30;;
74551;SDS011;63025;55.472;38.432;2023-03-01T09:20:42;4.85;;;2.22;;
74551;SDS011;63025;55.472;38.432;2023-03-01T09:23:07;6.68;;;2.00;;
74551;SDS011;63025;55.472;38.432;2023-03-01T09:25:34;4.53;;;2.00;;
74551;SDS011;63025;55.472;38.432;2023-03-01T09:28:00;7.07;;;2.72;;
74551;SDS011;63025;55.472;38.432;2023-03-01T09:30:26;7.15;;;2.28;;
74551;SDS011;63025;55.472;38.432;2023-03-01T09:32:52;5.53;;;1.98;;
74551;SDS011;63025;55.472;38.432;2023-03-01T09:35:18;4.28;;;1.77;;
74551;SDS011;63025;55.472;38.432;2023-03-01T09:37:45;6.00;;;2.00;;
74551;SDS011;63025;55.472;38.432;2023-03-01T09:40:12;8.18;;;2.63;;
74551;SDS011;63025;55.472;38.432;2023-03-01T09:42:49;6.63;;;2.08;;
74551;SDS011;63025;55.472;38.432;2023-03-01T09:48:02;4.28;;;2.00;;
74551;SDS011;63025;55.472;38.432;2023-03-01T09:50:35;5.82;;;2.13;;
74551;SDS011;63025;55.472;38.432;2023-03-01T09:55:38;4.53;;;1.63;;
74551;SDS011;63025;55.472;38.432;2023-03-01T10:06:36;6.78;;;1.77;;
74551;SDS011;63025;55.472;38.432;2023-03-01T10:09:10;5.35;;;2.13;;
74551;SDS011;63025;55.472;38.432;2023-03-01T10:11:53;5.97;;;1.88;;
74551;SDS011;63025;55.472;38.432;2023-03-01T10:19:52;4.18;;;1.90;;
74551;SDS011;63025;55.472;38.432;2023-03-01T10:22:20;4.22;;;1.80;;
74551;SDS011;63025;55.472;38.432;2023-03-01T10:24:50;4.43;;;1.60;;
74551;SDS011;63025;55.472;38.432;2023-03-01T10:32:31;4.72;;;1.80;;
74551;SDS011;63025;55.472;38.432;2023-03-01T10:34:57;4.57;;;1.90;;
74551;SDS011;63025;55.472;38.432;2023-03-01T10:37:23;4.75;;;1.83;;
74551;SDS011;63025;55.472;38.432;2023-03-01T10:42:34;5.05;;;1.98;;
74551;SDS011;63025;55.472;38.432;2023-03-01T10:48:05;3.78;;;1.88;;
74551;SDS011;63025;55.472;38.432;2023-03-01T10:50:38;4.53;;;1.63;;
74551;SDS011;63025;55.472;38.432;2023-03-01T10:56:04;4.53;;;1.80;;
74551;SDS011;63025;55.472;38.432;2023-03-01T10:58:32;3.85;;;1.70;;
74551;SDS011;63025;55.472;38.432;2023-03-01T11:01:03;5.22;;;1.75;;
74551;SDS011;63025;55.472;38.432;2023-03-01T11:03:35;4.10;;;1.50;;
74551;SDS011;63025;55.472;38.432;2023-03-01T11:08:47;3.92;;;1.70;;
74551;SDS011;63025;55.472;38.432;2023-03-01T11:13:58;3.90;;;1.35;;
74551;SDS011;63025;55.472;38.432;2023-03-01T11:16:34;3.63;;;1.40;;
74551;SDS011;63025;55.472;38.432;2023-03-01T11:21:36;4.82;;;1.70;;
74551;SDS011;63025;55.472;38.432;2023-03-01T11:24:09;3.83;;;1.50;;
74551;SDS011;63025;55.472;38.432;2023-03-01T11:26:39;3.75;;;1.38;;
74551;SDS011;63025;55.472;38.432;2023-03-01T11:29:32;6.35;;;1.80;;
74551;SDS011;63025;55.472;38.432;2023-03-01T11:32:04;4.25;;;1.52;;
74551;SDS011;63025;55.472;38.432;2023-03-01T11:40:46;3.47;;;1.50;;
74551;SDS011;63025;55.472;38.432;2023-03-01T12:10:19;6.85;;;2.90;;
74551;SDS011;63025;55.472;38.432;2023-03-01T12:13:03;9.70;;;3.65;;
74551;SDS011;63025;55.472;38.432;2023-03-01T12:23:39;5.65;;;1.92;;
74551;SDS011;63025;55.472;38.432;2023-03-01T12:26:27;3.97;;;1.25;;
74551;SDS011;63025;55.472;38.432;2023-03-01T12:50:48;4.13;;;1.70;;
74551;SDS011;63025;55.472;38.432;2023-03-01T12:53:20;4.15;;;1.30;;
74551;SDS011;63025;55.472;38.432;2023-03-01T12:55:54;3.80;;;1.75;;
74551;SDS011;63025;55.472;38.432;2023-03-01T13:09:09;3.63;;;1.50;;
74551;SDS011;63025;55.472;38.432;2023-03-01T13:11:41;3.20;;;1.40;;
74551;SDS011;63025;55.472;38.432;2023-03-01T13:16:46;4.03;;;1.67;;
74551;SDS011;63025;55.472;38.432;2023-03-01T13:19:27;4.00;;;1.70;;
74551;SDS011;63025;55.472;38.432;2023-03-01T13:22:01;5.13;;;1.40;;
74551;SDS011;63025;55.472;38.432;2023-03-01T13:25:02;5.43;;;1.50;;
74551;SDS011;63025;55.472;38.432;2023-03-01T13:27:39;3.97;;;1.17;;
74551;SDS011;63025;55.472;38.432;2023-03-01T13:30:12;4.95;;;1.40;;
74551;SDS011;63025;55.472;38.432;2023-03-01T13:32:51;2.80;;;1.30;;
74551;SDS011;63025;55.472;38.432;2023-03-01T13:37:43;4.93;;;2.20;;
74551;SDS011;63025;55.472;38.432;2023-03-01T13:47:47;5.45;;;1.73;;
74551;SDS011;63025;55.472;38.432;2023-03-01T13:50:18;4.68;;;1.65;;
74551;SDS011;63025;55.472;38.432;2023-03-01T13:52:49;6.13;;;2.05;;
74551;SDS011;63025;55.472;38.432;2023-03-01T13:57:59;5.80;;;1.75;;
74551;SDS011;63025;55.472;38.432;2023-03-01T14:00:37;4.10;;;1.70;;
74551;SDS011;63025;55.472;38.432;2023-03-01T14:08:24;5.47;;;1.65;;
74551;SDS011;63025;55.472;38.432;2023-03-01T14:21:31;3.20;;;1.35;;
74551;SDS011;63025;55.472;38.432;2023-03-01T14:23:57;4.10;;;1.88;;
74551;SDS011;63025;55.472;38.432;2023-03-01T14:26:23;5.47;;;1.60;;
74551;SDS011;63025;55.472;38.432;2023-03-01T14:28:49;4.65;;;2.00;;
74551;SDS011;63025;55.472;38.432;2023-03-01T14:31:49;6.07;;;2.40;;
74551;SDS011;63025;55.472;38.432;2023-03-01T14:34:16;8.48;;;2.33;;
74551;SDS011;63025;55.472;38.432;2023-03-01T14:36:45;5.18;;;2.10;;
74551;SDS011;63025;55.472;38.432;2023-03-01T14:39:23;4.57;;;1.70;;
74551;SDS011;63025;55.472;38.432;2023-03-01T14:41:51;5.55;;;1.80;;
74551;SDS011;63025;55.472;38.432;2023-03-01T14:44:21;5.47;;;2.30;;
74551;SDS011;63025;55.472;38.432;2023-03-01T14:46:53;6.93;;;2.60;;
74551;SDS011;63025;55.472;38.432;2023-03-01T14:49:27;8.25;;;2.70;;
74551;SDS011;63025;55.472;38.432;2023-03-01T14:52:02;3.88;;;1.70;;
74551;SDS011;63025;55.472;38.432;2023-03-01T14:54:41;4.82;;;1.90;;
74551;SDS011;63025;55.472;38.432;2023-03-01T14:57:17;6.05;;;1.85;;
74551;SDS011;63025;55.472;38.432;2023-03-01T14:59:47;5.32;;;1.55;;
74551;SDS011;63025;55.472;38.432;2023-03-01T15:02:17;4.95;;;1.50;;
74551;SDS011;63025;55.472;38.432;2023-03-01T15:04:45;5.38;;;1.67;;
74551;SDS011;63025;55.472;38.432;2023-03-01T15:07:14;7.30;;;2.00;;
74551;SDS011;63025;55.472;38.432;2023-03-01T15:09:40;7.97;;;2.80;;
74551;SDS011;63025;55.472;38.432;2023-03-01T15:14:59;5.82;;;1.50;;
74551;SDS011;63025;55.472;38.432;2023-03-01T15:17:37;5.85;;;1.45;;
74551;SDS011;63025;55.472;38.432;2023-03-01T15:20:05;5.82;;;1.42;;
74551;SDS011;63025;55.472;38.432;2023-03-01T15:22:45;4.55;;;1.70;;
74551;SDS011;63025;55.472;38.432;2023-03-01T15:25:15;3.35;;;1.40;;
74551;SDS011;63025;55.472;38.432;2023-03-01T15:27:46;9.63;;;2.60;;
74551;SDS011;63025;55.472;38.432;2023-03-01T15:30:17;5.63;;;1.88;;
74551;SDS011;63025;55.472;38.432;2023-03-01T15:32:46;4.78;;;1.83;;
74551;SDS011;63025;55.472;38.432;2023-03-01T15:41:23;8.05;;;1.95;;
74551;SDS011;63025;55.472;38.432;2023-03-01T15:43:56;4.05;;;1.73;;
74551;SDS011;63025;55.472;38.432;2023-03-01T15:46:39;3.97;;;1.67;;
74551;SDS011;63025;55.472;38.432;2023-03-01T15:49:05;3.03;;;1.30;;
74551;SDS011;63025;55.472;38.432;2023-03-01T15:51:44;6.07;;;1.70;;
74551;SDS011;63025;55.472;38.432;2023-03-01T15:54:15;4.65;;;1.77;;
74551;SDS011;63025;55.472;38.432;2023-03-01T15:56:44;4.82;;;1.95;;
74551;SDS011;63025;55.472;38.432;2023-03-01T15:59:09;4.03;;;1.52;;
74551;SDS011;63025;55.472;38.432;2023-03-01T16:01:40;3.55;;;1.33;;
74551;SDS011;63025;55.472;38.432;2023-03-01T16:04:06;4.18;;;1.60;;
74551;SDS011;63025;55.472;38.432;2023-03-01T16:06:34;4.28;;;1.50;;
74551;SDS011;63025;55.472;38.432;2023-03-01T16:09:01;6.28;;;1.98;;
74551;SDS011;63025;55.472;38.432;2023-03-01T16:11:27;4.40;;;1.88;;
74551;SDS011;63025;55.472;38.432;2023-03-01T16:13:53;3.42;;;1.52;;
74551;SDS011;63025;55.472;38.432;2023-03-01T16:16:19;5.10;;;2.33;;
74551;SDS011;63025;55.472;38.432;2023-03-01T16:18:45;4.03;;;1.77;;
74551;SDS011;63025;55.472;38.432;2023-03-01T16:21:13;3.72;;;1.58;;
74551;SDS011;63025;55.472;38.432;2023-03-01T16:23:45;5.68;;;1.70;;
74551;SDS011;63025;55.472;38.432;2023-03-01T16:26:11;5.30;;;1.73;;
74551;SDS011;63025;55.472;38.432;2023-03-01T16:28:39;6.65;;;2.17;;
74551;SDS011;63025;55.472;38.432;2023-03-01T16:31:07;4.28;;;1.83;;
74551;SDS011;63025;55.472;38.432;2023-03-01T16:33:34;4.25;;;1.73;;
74551;SDS011;63025;55.472;38.432;2023-03-01T16:36:00;4.35;;;1.60;;
74551;SDS011;63025;55.472;38.432;2023-03-01T16:38:31;4.55;;;1.48;;
74551;SDS011;63025;55.472;38.432;2023-03-01T16:40:57;3.42;;;1.90;;
74551;SDS011;63025;55.472;38.432;2023-03-01T16:43:23;5.97;;;1.88;;
74551;SDS011;63025;55.472;38.432;2023-03-01T16:45:49;4.82;;;1.83;;
74551;SDS011;63025;55.472;38.432;2023-03-01T16:48:15;5.88;;;1.67;;
74551;SDS011;63025;55.472;38.432;2023-03-01T16:50:41;4.82;;;1.60;;
74551;SDS011;63025;55.472;38.432;2023-03-01T16:53:06;4.45;;;1.73;;
74551;SDS011;63025;55.472;38.432;2023-03-01T16:55:32;5.53;;;1.90;;
74551;SDS011;63025;55.472;38.432;2023-03-01T16:57:58;4.82;;;2.08;;
74551;SDS011;63025;55.472;38.432;2023-03-01T17:00:24;3.92;;;1.50;;
74551;SDS011;63025;55.472;38.432;2023-03-01T17:02:50;7.30;;;1.75;;
74551;SDS011;63025;55.472;38.432;2023-03-01T17:05:17;4.60;;;1.88;;
74551;SDS011;63025;55.472;38.432;2023-03-01T17:07:42;5.32;;;2.30;;
74551;SDS011;63025;55.472;38.432;2023-03-01T17:10:09;6.38;;;2.25;;
74551;SDS011;63025;55.472;38.432;2023-03-01T17:12:35;7.93;;;2.95;;
74551;SDS011;63025;55.472;38.432;2023-03-01T17:15:02;5.72;;;2.25;;
74551;SDS011;63025;55.472;38.432;2023-03-01T17:17:29;8.32;;;3.85;;
74551;SDS011;63025;55.472;38.432;2023-03-01T17:19:56;11.85;;;4.68;;
74551;SDS011;63025;55.472;38.432;2023-03-01T17:22:22;7.50;;;2.63;;
74551;SDS011;63025;55.472;38.432;2023-03-01T17:24:48;6.82;;;2.38;;
74551;SDS011;63025;55.472;38.432;2023-03-01T17:27:14;6.47;;;2.50;;
74551;SDS011;63025;55.472;38.432;2023-03-01T17:29:40;14.23;;;5.05;;
74551;SDS011;63025;55.472;38.432;2023-03-01T17:32:06;7.07;;;2.88;;
74551;SDS011;63025;55.472;38.432;2023-03-01T17:34:32;13.30;;;4.43;;
74551;SDS011;63025;55.472;38.432;2023-03-01T17:36:58;5.30;;;2.33;;
74551;SDS011;63025;55.472;38.432;2023-03-01T17:39:25;6.57;;;2.30;;
74551;SDS011;63025;55.472;38.432;2023-03-01T17:41:55;6.40;;;2.05;;
74551;SDS011;63025;55.472;38.432;2023-03-01T17:44:21;8.57;;;2.80;;
74551;SDS011;63025;55.472;38.432;2023-03-01T17:46:47;6.45;;;2.20;;